createdAt,value
2018-12-03T00:01:31.859Z,10.14
2018-12-03T00:06:34.179Z,10.12
2018-12-03T00:11:37.048Z,10.17
2018-12-03T00:16:39.426Z,10.18
2018-12-03T00:21:41.778Z,10.21
2018-12-03T00:26:44.061Z,10.15
2018-12-03T00:31:46.361Z,10.08
2018-12-03T00:36:48.874Z,10.01
2018-12-03T00:41:51.175Z,10.05
2018-12-03T00:46:53.463Z,10.01
2018-12-03T00:51:55.780Z,9.95
2018-12-03T00:56:58.100Z,9.89
2018-12-03T01:02:00.407Z,9.91
2018-12-03T01:07:02.717Z,9.86
2018-12-03T01:12:05.028Z,10.06
2018-12-03T01:17:07.318Z,10.09
2018-12-03T01:22:09.651Z,10.05
2018-12-03T01:27:11.939Z,10.02
2018-12-03T01:32:14.249Z,10.07
2018-12-03T01:37:16.533Z,10.05
2018-12-03T01:42:18.822Z,10.23
2018-12-03T01:47:21.207Z,10.17
2018-12-03T01:52:23.627Z,10.21
2018-12-03T01:57:25.959Z,10.25
2018-12-03T02:02:28.311Z,10.26
2018-12-03T02:07:30.624Z,10.36
2018-12-03T02:12:33.016Z,10.45
2018-12-03T02:17:35.362Z,10.52
2018-12-03T02:22:37.705Z,10.63
2018-12-03T02:27:40.051Z,10.73
2018-12-03T02:32:42.672Z,10.70
2018-12-03T02:37:45.007Z,10.66
2018-12-03T02:42:47.300Z,10.52
2018-12-03T02:47:49.592Z,10.60
2018-12-03T02:52:51.954Z,10.78
2018-12-03T02:57:54.356Z,10.52
2018-12-03T03:02:56.642Z,10.33
2018-12-03T03:07:59.029Z,10.16
2018-12-03T03:13:01.328Z,10.01
2018-12-03T03:18:03.668Z,9.97
2018-12-03T03:23:06.256Z,9.95
2018-12-03T03:28:08.539Z,9.92
2018-12-03T03:33:10.835Z,9.92
2018-12-03T03:38:13.128Z,10.16
2018-12-03T03:43:15.666Z,10.21
2018-12-03T03:48:18.118Z,10.21
2018-12-03T03:53:20.450Z,10.22
2018-12-03T03:58:22.816Z,10.19
2018-12-03T04:03:25.100Z,10.14
2018-12-03T04:08:27.387Z,10.11
2018-12-03T04:13:29.664Z,10.16
2018-12-03T04:18:32.053Z,10.17
2018-12-03T04:23:37.847Z,10.12
2018-12-03T04:28:40.198Z,10.16
2018-12-03T04:33:42.486Z,10.11
2018-12-03T04:38:44.773Z,10.09
2018-12-03T04:43:47.048Z,10.08
2018-12-03T04:48:49.346Z,10.00
2018-12-03T04:53:51.739Z,9.98
2018-12-03T04:58:54.057Z,9.80
2018-12-03T05:03:56.443Z,9.67
2018-12-03T05:08:58.804Z,9.58
2018-12-03T05:14:01.093Z,9.58
2018-12-03T05:19:03.417Z,9.54
2018-12-03T05:24:07.546Z,9.54
2018-12-03T05:29:09.835Z,9.59
2018-12-03T05:34:12.150Z,9.52
2018-12-03T05:39:14.461Z,9.48
2018-12-03T05:44:16.749Z,9.40
2018-12-03T05:49:19.056Z,9.39
2018-12-03T05:54:21.425Z,9.36
2018-12-03T05:59:23.716Z,9.54
2018-12-03T06:04:26.018Z,9.60
2018-12-03T06:09:28.352Z,9.63
2018-12-03T06:14:30.759Z,9.64
2018-12-03T06:19:33.183Z,9.60
2018-12-03T06:24:35.601Z,9.60
2018-12-03T06:29:37.892Z,9.60
2018-12-03T06:34:40.181Z,9.59
2018-12-03T06:39:42.504Z,9.55
2018-12-03T06:44:44.877Z,9.51
2018-12-03T06:49:47.190Z,9.45
2018-12-03T06:54:49.554Z,9.41
2018-12-03T06:59:51.909Z,9.39
2018-12-03T07:04:54.209Z,9.40
2018-12-03T07:09:56.498Z,9.54
2018-12-03T07:14:59.369Z,9.63
2018-12-03T07:20:01.673Z,9.64
2018-12-03T07:25:04.227Z,9.57
2018-12-03T07:30:15.599Z,9.58
2018-12-03T07:35:18.649Z,9.79
2018-12-03T07:40:55.790Z,9.95
2018-12-03T07:45:58.036Z,9.91
2018-12-03T07:51:00.257Z,9.89
2018-12-03T07:56:05.293Z,9.97
2018-12-03T08:01:07.643Z,10.01
2018-12-03T08:06:09.874Z,10.18
2018-12-03T08:11:12.154Z,10.35
2018-12-03T08:16:14.410Z,10.39
2018-12-03T08:21:16.657Z,10.43
2018-12-03T08:26:18.957Z,10.51
2018-12-03T08:31:21.348Z,10.53
2018-12-03T08:36:23.602Z,10.53
2018-12-03T08:41:25.941Z,10.63
2018-12-03T08:46:28.320Z,10.63
2018-12-03T08:51:30.566Z,10.77
2018-12-03T08:56:32.841Z,10.70
2018-12-03T09:01:35.121Z,10.81
2018-12-03T09:06:37.381Z,10.86
2018-12-03T09:11:47.193Z,10.96
2018-12-03T09:16:49.510Z,11.06
2018-12-03T09:21:51.770Z,11.12
2018-12-03T09:26:54.064Z,11.20
2018-12-03T09:31:56.321Z,11.25
2018-12-03T09:36:58.620Z,11.29
2018-12-03T09:42:00.915Z,11.36
2018-12-03T09:47:03.277Z,11.50
2018-12-03T09:52:06.168Z,11.58
2018-12-03T09:57:08.555Z,11.65
2018-12-03T10:02:10.863Z,11.54
2018-12-03T10:07:18.381Z,11.45
2018-12-03T10:12:20.931Z,11.73
2018-12-03T10:17:23.220Z,11.95
2018-12-03T10:22:25.501Z,11.90
2018-12-03T10:27:28.191Z,11.92
2018-12-03T10:32:30.524Z,11.92
2018-12-03T10:37:32.792Z,11.86
2018-12-03T10:42:35.084Z,11.90
2018-12-03T10:47:37.435Z,11.93
2018-12-03T10:52:40.090Z,11.93
2018-12-03T10:57:43.892Z,11.92
2018-12-03T11:02:54.137Z,12.00
2018-12-03T11:07:56.652Z,12.00
2018-12-03T11:12:59.088Z,11.93
2018-12-03T11:18:02.584Z,11.92
2018-12-03T11:23:05.867Z,11.98
2018-12-03T11:28:12.095Z,12.04
2018-12-03T11:33:21.648Z,12.11
2018-12-03T11:38:30.751Z,11.98
2018-12-03T11:43:33.045Z,11.98
2018-12-03T11:48:35.588Z,12.01
2018-12-03T11:53:37.856Z,12.09
2018-12-03T11:58:40.297Z,12.17
2018-12-03T12:03:44.395Z,12.14
2018-12-03T12:08:46.668Z,11.94
2018-12-03T12:13:48.995Z,11.68
2018-12-03T12:18:51.504Z,11.42
2018-12-03T12:23:53.966Z,11.25
2018-12-03T12:28:56.299Z,11.09
2018-12-03T12:33:58.586Z,10.98
2018-12-03T12:39:00.888Z,10.90
2018-12-03T12:44:03.621Z,10.85
2018-12-03T12:49:07.348Z,10.69
2018-12-03T12:54:09.629Z,10.55
2018-12-03T12:59:12.090Z,10.48
2018-12-03T13:04:14.880Z,10.59
2018-12-03T13:09:17.159Z,10.52
2018-12-03T13:14:19.508Z,10.48
2018-12-03T13:19:21.767Z,10.51
2018-12-03T13:24:24.031Z,10.53
2018-12-03T13:29:26.352Z,10.54
2018-12-03T13:34:34.294Z,10.54
2018-12-03T13:39:32.912Z,10.49
2018-12-03T13:44:35.166Z,10.42
2018-12-03T13:49:40.397Z,10.36
2018-12-03T13:54:42.677Z,10.32
2018-12-03T13:59:45.181Z,10.22
2018-12-03T14:04:47.705Z,10.20
2018-12-03T14:10:05.269Z,10.26
2018-12-03T14:17:23.492Z,10.24
2018-12-03T14:22:29.516Z,10.15
2018-12-03T14:27:32.010Z,10.13
2018-12-03T14:32:34.323Z,10.09
2018-12-03T14:37:36.714Z,10.00
2018-12-03T14:42:39.030Z,9.88
2018-12-03T14:47:41.422Z,9.82
2018-12-03T14:52:43.691Z,9.76
2018-12-03T14:57:45.976Z,9.82
2018-12-03T15:02:48.293Z,9.85
2018-12-03T15:07:50.588Z,9.90
2018-12-03T15:12:52.950Z,9.97
2018-12-03T15:17:56.321Z,10.03
2018-12-03T15:22:58.557Z,10.25
2018-12-03T15:28:00.842Z,10.30
2018-12-03T15:33:03.393Z,10.20
2018-12-03T15:38:05.652Z,10.11
2018-12-03T15:43:08.106Z,10.06
2018-12-03T15:48:10.359Z,10.05
2018-12-03T15:53:12.652Z,10.05
2018-12-03T15:58:16.390Z,10.04
2018-12-03T16:03:18.959Z,10.05
2018-12-03T16:08:21.212Z,10.04
2018-12-03T16:13:24.557Z,10.06
2018-12-03T16:18:26.799Z,10.01
2018-12-03T16:23:29.101Z,9.94
2018-12-03T16:28:31.452Z,9.90
2018-12-03T16:33:34.044Z,9.79
2018-12-03T16:38:36.417Z,9.72
2018-12-03T16:43:38.681Z,9.61
2018-12-03T16:48:41.564Z,9.45
2018-12-03T16:53:43.818Z,9.33
2018-12-03T16:58:46.065Z,9.34
2018-12-03T17:03:48.355Z,9.29
2018-12-03T17:08:50.643Z,9.31
2018-12-03T17:13:53.033Z,9.30
2018-12-03T17:18:55.372Z,9.26
2018-12-03T17:24:23.845Z,9.30
2018-12-03T17:29:26.173Z,9.30
2018-12-03T17:34:28.480Z,9.31
2018-12-03T17:39:30.760Z,9.22
2018-12-03T17:44:35.131Z,9.16
2018-12-03T17:49:37.412Z,9.11
2018-12-03T17:54:39.705Z,9.13
2018-12-03T17:59:41.971Z,9.11
2018-12-03T18:04:44.269Z,9.12
2018-12-03T18:09:47.685Z,9.14
2018-12-03T18:14:50.078Z,9.12
2018-12-03T18:19:52.667Z,9.20
2018-12-03T18:24:54.936Z,9.23
2018-12-03T18:29:57.195Z,9.35
2018-12-03T18:34:59.628Z,9.49
2018-12-03T18:40:03.021Z,9.44
2018-12-03T18:45:06.584Z,9.42
2018-12-03T18:50:13.174Z,9.42
2018-12-03T18:55:15.533Z,9.44
2018-12-03T19:00:18.978Z,9.45
2018-12-03T19:05:21.713Z,9.46
2018-12-03T19:10:25.029Z,9.50
2018-12-03T19:15:27.297Z,9.50
2018-12-03T19:20:30.041Z,9.55
2018-12-03T19:25:32.283Z,9.63
2018-12-03T19:30:34.610Z,9.73
2018-12-03T19:35:40.531Z,9.70
2018-12-03T19:40:44.994Z,9.64
2018-12-03T19:45:48.145Z,9.60
2018-12-03T19:50:50.423Z,9.62
2018-12-03T19:55:53.250Z,9.61
2018-12-03T20:00:55.661Z,9.57
2018-12-03T20:05:57.967Z,9.49
2018-12-03T20:11:00.948Z,9.51
2018-12-03T20:16:03.766Z,9.53
2018-12-03T20:21:11.148Z,9.65
2018-12-03T20:26:19.852Z,9.61
2018-12-03T20:31:33.355Z,9.68
2018-12-03T20:37:19.628Z,9.51
2018-12-03T20:42:24.561Z,9.47
2018-12-03T20:47:30.230Z,9.44
2018-12-03T20:52:32.469Z,9.27
2018-12-03T20:57:34.722Z,9.19
2018-12-03T21:02:37.022Z,9.10
2018-12-03T21:07:39.442Z,9.21
2018-12-03T21:12:41.710Z,9.25
2018-12-03T21:17:43.989Z,9.22
2018-12-03T21:22:46.369Z,9.29
2018-12-03T21:27:48.739Z,9.32
2018-12-03T21:32:52.126Z,9.37
2018-12-03T21:37:55.287Z,9.39
2018-12-03T21:42:57.535Z,9.29
2018-12-03T21:47:59.781Z,9.14
2018-12-03T21:53:02.028Z,9.18
2018-12-03T21:58:04.395Z,9.17
2018-12-03T22:03:06.673Z,9.23
2018-12-03T22:08:09.206Z,9.20
2018-12-03T22:13:11.450Z,9.17
2018-12-03T22:18:13.677Z,9.22
2018-12-03T22:23:15.905Z,9.23
2018-12-03T22:28:18.139Z,9.21
2018-12-03T22:33:20.381Z,9.21
2018-12-03T22:38:22.666Z,9.21
2018-12-03T22:43:25.061Z,9.22
2018-12-03T22:48:27.337Z,9.24
2018-12-03T22:53:29.550Z,9.25
2018-12-03T22:58:31.822Z,9.24
2018-12-03T23:03:34.088Z,9.30
2018-12-03T23:08:36.679Z,9.38
2018-12-03T23:13:39.122Z,9.33
2018-12-03T23:18:41.352Z,9.34
2018-12-03T23:23:43.677Z,9.26
2018-12-03T23:28:46.050Z,9.24
2018-12-03T23:33:48.286Z,9.27
2018-12-03T23:38:50.734Z,9.29
2018-12-03T23:43:52.973Z,9.28
2018-12-03T23:48:55.325Z,9.28
2018-12-03T23:53:57.560Z,9.49
2018-12-03T23:58:59.830Z,9.46
